Time;durP1;ratioP1;P1;durP2;ratioP2;P2;SDS_P1;SDS_P2;PMS_P1;PMS_P2;Temp;Humidity;BMP_temperature;BMP_pressure;BME280_temperature;BME280_humidity;BME280_pressure;Samples;Min_cycle;Max_cycle;Signal;HPM_P1;HPM_P2
2023/07/08 00:03:48;;;;;;;12.35;4.82;;;28.30;31.20;;;;;;21259318;27;20044;-57
2023/07/08 00:13:49;;;;;;;9.52;5.63;;;28.10;30.60;;;;;;21258322;27;20043;-57
2023/07/08 00:23:50;;;;;;;;;;;27.90;31.30;;;;;;21257006;27;20055;-57
2023/07/08 00:33:55;;;;;;;11.47;5.03;;;27.70;30.60;;;;;;21257024;27;20360;-56
2023/07/08 00:43:57;;;;;;;8.68;4.10;;;27.70;30.60;;;;;;21256060;27;20039;-57
2023/07/08 00:53:58;;;;;;;7.32;3.30;;;27.60;30.00;;;;;;21255232;27;20047;-57
2023/07/08 01:04:03;;;;;;;8.23;3.67;;;27.60;30.50;;;;;;21254267;27;20045;-57
2023/07/08 01:14:07;;;;;;;12.98;4.55;;;27.50;30.10;;;;;;21253531;27;20150;-56
2023/07/08 01:24:11;;;;;;;10.75;5.45;;;27.40;30.60;;;;;;21251301;27;20168;-58
2023/07/08 01:34:12;;;;;;;9.05;5.50;;;27.20;30.30;;;;;;21251032;27;20085;-58
2023/07/08 01:44:28;;;;;;;7.60;4.68;;;27.10;30.80;;;;;;21251630;27;20039;-57
2023/07/08 01:54:28;;;;;;;5.80;3.40;;;27.00;30.40;;;;;;21249796;27;20054;-58
2023/07/08 02:04:30;;;;;;;10.17;3.67;;;26.90;30.40;;;;;;21248088;27;20039;-62
2023/07/08 02:14:31;;;;;;;8.73;3.60;;;26.70;31.00;;;;;;21249136;27;20055;-57
2023/07/08 02:24:31;;;;;;;7.73;3.73;;;26.60;30.80;;;;;;21248816;27;20051;-57
2023/07/08 02:34:32;;;;;;;5.13;3.53;;;26.50;31.30;;;;;;21247860;28;20050;-56
2023/07/08 02:44:33;;;;;;;6.77;3.90;;;26.50;31.10;;;;;;21247388;28;20043;-56
2023/07/08 02:54:34;;;;;;;5.90;3.47;;;26.40;31.10;;;;;;21245738;28;20039;-57
2023/07/08 03:04:38;;;;;;;10.73;3.43;;;26.20;31.40;;;;;;21250597;27;20129;-57
2023/07/08 03:14:39;;;;;;;5.82;3.33;;;26.00;32.10;;;;;;21262774;27;20050;-57
2023/07/08 03:24:45;;;;;;;6.97;3.47;;;25.80;32.70;;;;;;21261989;27;20051;-57
2023/07/08 03:34:46;;;;;;;7.25;4.95;;;25.80;32.60;;;;;;21261000;27;20107;-57
2023/07/08 03:44:47;;;;;;;6.33;3.67;;;25.70;32.90;;;;;;21259080;27;20075;-55
2023/07/08 03:54:47;;;;;;;9.47;4.27;;;25.60;33.30;;;;;;21259844;27;20496;-56
2023/07/08 04:04:50;;;;;;;8.30;4.53;;;25.50;33.60;;;;;;21258682;27;20043;-56
2023/07/08 04:14:51;;;;;;;5.38;3.63;;;25.30;34.20;;;;;;21257898;27;20096;-57
2023/07/08 04:24:51;;;;;;;6.60;4.00;;;25.40;34.20;;;;;;21256238;27;20051;-56
2023/07/08 04:34:52;;;;;;;7.67;3.83;;;25.30;34.50;;;;;;21256326;27;20172;-56
2023/07/08 04:44:54;;;;;;;4.37;3.20;;;25.20;35.00;;;;;;21255552;27;20035;-57
2023/07/08 04:54:54;;;;;;;10.00;4.67;;;25.20;35.50;;;;;;21254848;27;20047;-57
2023/07/08 05:04:55;;;;;;;8.83;3.70;;;25.10;35.90;;;;;;21252254;27;20047;-57
2023/07/08 05:14:56;;;;;;;5.83;3.20;;;25.10;36.10;;;;;;21252861;27;20500;-57
2023/07/08 05:24:57;;;;;;;5.53;3.17;;;24.90;36.50;;;;;;21250322;27;20155;-56
2023/07/08 05:34:58;;;;;;;8.17;3.13;;;24.70;37.00;;;;;;21251588;27;20043;-57
2023/07/08 05:44:59;;;;;;;6.63;3.53;;;24.60;37.40;;;;;;21250837;27;20047;-56
2023/07/08 05:54:59;;;;;;;8.70;3.30;;;24.60;37.70;;;;;;21248796;27;20050;-56
2023/07/08 06:05:00;;;;;;;4.70;3.38;;;24.50;37.90;;;;;;21248220;27;20074;-55
2023/07/08 06:15:01;;;;;;;6.72;3.88;;;24.50;37.90;;;;;;21247280;27;20123;-57
2023/07/08 06:25:02;;;;;;;7.07;3.40;;;24.60;37.60;;;;;;21197295;27;20055;-55
2023/07/08 06:35:03;;;;;;;7.20;3.50;;;24.30;38.40;;;;;;21160559;28;20133;-58
2023/07/08 06:45:04;;;;;;;7.10;4.10;;;24.30;38.40;;;;;;21175943;28;20093;-54
2023/07/08 06:55:09;;;;;;;4.40;2.38;;;24.40;37.50;;;;;;21177705;28;20503;-56
2023/07/08 07:05:09;;;;;;;6.60;3.55;;;24.80;36.60;;;;;;21176964;28;20048;-57
2023/07/08 07:15:10;;;;;;;7.33;3.37;;;25.60;34.70;;;;;;21175109;28;20040;-56
2023/07/08 07:25:11;;;;;;;3.70;2.63;;;26.20;33.90;;;;;;21226075;27;20091;-55
2023/07/08 07:35:14;;;;;;;6.60;3.33;;;26.90;32.60;;;;;;21260632;27;20395;-55
2023/07/08 07:45:15;;;;;;;6.22;3.20;;;27.40;31.70;;;;;;21259871;27;20404;-57
2023/07/08 07:55:16;;;;;;;7.95;3.78;;;27.70;31.10;;;;;;21258228;27;20102;-57
2023/07/08 08:05:17;;;;;;;5.93;3.42;;;28.10;30.00;;;;;;21257729;27;20071;-57
2023/07/08 08:15:17;;;;;;;;;;;28.20;29.10;;;;;;21256427;27;20126;-56
2023/07/08 08:25:20;;;;;;;5.40;3.55;;;28.60;29.20;;;;;;21255377;27;19919;-57
2023/07/08 08:35:21;;;;;;;5.82;2.75;;;29.00;29.30;;;;;;21254553;27;20047;-57
2023/07/08 08:45:25;;;;;;;6.22;2.67;;;29.40;27.00;;;;;;21255319;27;20126;-58
2023/07/08 08:55:26;;;;;;;5.55;3.38;;;29.60;27.30;;;;;;21254517;27;20043;-56
2023/07/08 09:05:27;;;;;;;7.03;2.90;;;29.70;27.10;;;;;;21252752;27;20036;-56
2023/07/08 09:15:28;;;;;;;6.57;2.80;;;29.90;26.30;;;;;;21253115;27;20602;-57
2023/07/08 09:25:48;;;;;;;6.82;3.05;;;30.00;26.50;;;;;;21251068;27;20113;-55
2023/07/08 09:35:49;;;;;;;6.20;2.87;;;30.00;26.60;;;;;;21250826;27;20046;-56
2023/07/08 09:45:50;;;;;;;5.32;3.00;;;30.10;26.60;;;;;;21250354;27;20544;-57
2023/07/08 09:55:51;;;;;;;6.70;3.08;;;30.30;27.10;;;;;;21249864;27;20039;-55
2023/07/08 10:06:00;;;;;;;7.13;2.65;;;30.60;26.30;;;;;;21248821;27;20046;-57
2023/07/08 10:16:09;;;;;;;5.80;2.92;;;30.80;24.60;;;;;;21248258;27;20684;-56
2023/07/08 10:26:28;;;;;;;7.83;3.90;;;31.00;23.80;;;;;;21187513;27;20575;-56
2023/07/08 10:36:58;;;;;;;4.00;2.67;;;31.30;25.80;;;;;;21077927;28;20815;-57
2023/07/08 10:47:02;;;;;;;4.50;3.10;;;31.00;24.90;;;;;;21078215;28;20504;-57
2023/07/08 10:57:26;;;;;;;5.90;4.13;;;31.10;23.70;;;;;;21076875;28;20091;-55
2023/07/08 11:07:34;;;;;;;5.68;2.55;;;31.30;22.60;;;;;;21067415;28;20444;-57
2023/07/08 11:17:41;;;;;;;8.13;5.60;;;31.30;22.90;;;;;;21077684;28;20044;-55
2023/07/08 11:27:44;;;;;;;4.85;2.95;;;31.60;23.40;;;;;;21085355;28;20105;-56
2023/07/08 11:37:45;;;;;;;3.65;2.85;;;31.60;22.70;;;;;;21089945;28;20040;-56
2023/07/08 11:47:48;;;;;;;6.85;2.65;;;31.70;23.00;;;;;;21089083;28;20076;-56
2023/07/08 11:57:57;;;;;;;5.07;3.15;;;31.70;22.60;;;;;;21088126;28;20048;-56
2023/07/08 12:07:58;;;;;;;6.22;2.60;;;31.90;21.90;;;;;;21086439;28;20044;-56
2023/07/08 12:18:04;;;;;;;6.82;2.95;;;31.80;21.20;;;;;;21088223;28;20166;-56
2023/07/08 12:28:04;;;;;;;8.20;2.65;;;31.80;21.20;;;;;;21086038;28;20051;-55
2023/07/08 12:38:12;;;;;;;7.95;2.88;;;32.00;21.00;;;;;;21086657;28;20125;-56
2023/07/08 12:48:12;;;;;;;6.65;3.58;;;32.10;20.90;;;;;;21084849;28;20044;-56
2023/07/08 12:58:19;;;;;;;5.45;2.83;;;32.10;21.80;;;;;;21085196;28;20074;-55
2023/07/08 13:08:23;;;;;;;7.15;2.70;;;32.20;21.10;;;;;;21083141;28;20051;-57
2023/07/08 13:18:36;;;;;;;6.57;2.90;;;32.40;21.60;;;;;;21083863;28;20566;-55
2023/07/08 13:28:41;;;;;;;5.18;3.05;;;32.50;21.80;;;;;;21081924;28;20131;-56
2023/07/08 13:38:42;;;;;;;5.18;2.67;;;32.60;21.80;;;;;;21082286;28;20131;-55
2023/07/08 13:48:43;;;;;;;5.18;2.10;;;32.70;21.30;;;;;;21079145;28;20056;-55
2023/07/08 13:58:51;;;;;;;7.03;2.67;;;32.70;21.40;;;;;;21081111;28;20398;-55
2023/07/08 14:08:55;;;;;;;4.00;2.55;;;33.00;21.70;;;;;;21080752;28;20035;-57
2023/07/08 14:18:57;;;;;;;5.28;2.55;;;32.60;21.90;;;;;;21079751;28;20040;-56
2023/07/08 14:28:58;;;;;;;4.70;2.72;;;33.00;21.60;;;;;;21077426;28;20497;-56
2023/07/08 14:39:00;;;;;;;5.23;2.57;;;32.90;21.20;;;;;;21077573;28;20048;-56
2023/07/08 14:49:01;;;;;;;7.97;4.25;;;32.90;21.50;;;;;;21077252;28;20838;-57
2023/07/08 14:59:02;;;;;;;6.63;3.20;;;32.90;21.70;;;;;;21081280;28;20044;-56
2023/07/08 15:09:03;;;;;;;4.90;2.60;;;33.10;21.80;;;;;;21092923;28;20051;-57
2023/07/08 15:19:10;;;;;;;4.05;2.30;;;33.00;21.70;;;;;;21093005;28;20044;-56
2023/07/08 15:29:16;;;;;;;4.25;3.00;;;33.00;22.10;;;;;;21091049;28;20040;-58
2023/07/08 15:39:17;;;;;;;5.07;2.83;;;33.00;22.50;;;;;;21092337;28;20059;-56
2023/07/08 15:49:20;;;;;;;6.15;3.10;;;33.10;22.50;;;;;;21090281;28;20052;-59
2023/07/08 15:59:28;;;;;;;5.18;2.65;;;33.00;22.60;;;;;;21089253;28;20047;-56
2023/07/08 16:09:28;;;;;;;4.53;2.90;;;32.90;22.60;;;;;;21088835;28;20479;-56
2023/07/08 16:19:30;;;;;;;5.68;2.65;;;32.90;22.80;;;;;;21087578;28;20140;-55
2023/07/08 16:29:31;;;;;;;5.47;2.40;;;33.00;22.80;;;;;;21087580;28;20550;-56
2023/07/08 16:39:32;;;;;;;5.63;2.50;;;33.00;22.20;;;;;;21086598;28;20473;-55
2023/07/08 16:49:33;;;;;;;5.88;2.80;;;33.00;22.60;;;;;;21083713;28;20149;-56
2023/07/08 16:59:34;;;;;;;6.72;3.22;;;32.80;22.40;;;;;;21084758;28;20433;-56
2023/07/08 17:09:35;;;;;;;5.38;3.22;;;32.80;22.30;;;;;;21084440;28;20047;-56
2023/07/08 17:19:35;;;;;;;4.10;2.67;;;32.80;22.70;;;;;;21082239;28;20093;-56
2023/07/08 17:29:36;;;;;;;6.15;2.60;;;32.70;22.20;;;;;;21081842;28;20403;-56
2023/07/08 17:39:37;;;;;;;6.32;2.97;;;32.60;22.10;;;;;;21080940;28;20047;-56
2023/07/08 17:49:38;;;;;;;5.90;2.60;;;32.60;22.20;;;;;;21081555;28;20044;-56
2023/07/08 17:59:39;;;;;;;3.85;2.30;;;32.50;22.30;;;;;;21079720;28;20132;-56
2023/07/08 18:09:40;;;;;;;3.90;2.38;;;32.40;22.40;;;;;;21078896;28;20433;-57
2023/07/08 18:19:41;;;;;;;4.53;2.95;;;32.30;22.50;;;;;;21078704;28;20047;-56
2023/07/08 18:29:44;;;;;;;6.78;3.03;;;32.20;22.60;;;;;;21079080;28;20086;-56
2023/07/08 18:39:45;;;;;;;4.75;2.65;;;32.10;22.50;;;;;;21078107;28;20048;-57
2023/07/08 18:49:45;;;;;;;4.85;2.88;;;31.90;22.70;;;;;;21078129;28;20109;-56
2023/07/08 18:59:48;;;;;;;5.85;2.80;;;31.80;23.00;;;;;;21077876;28;20045;-55
2023/07/08 19:09:48;;;;;;;4.55;2.88;;;31.60;23.10;;;;;;21076989;28;20159;-56
2023/07/08 19:19:49;;;;;;;6.47;3.10;;;31.40;23.40;;;;;;21076317;28;20111;-55
2023/07/08 19:29:50;;;;;;;4.90;3.15;;;31.10;23.60;;;;;;21076212;28;20114;-55
2023/07/08 19:39:51;;;;;;;6.10;3.05;;;31.00;23.90;;;;;;21075160;28;20044;-55
2023/07/08 19:49:51;;;;;;;11.70;3.75;;;30.90;24.00;;;;;;21083346;28;20054;-56
2023/07/08 19:59:52;;;;;;;4.88;3.30;;;30.70;24.10;;;;;;21088353;28;20094;-55
2023/07/08 20:09:53;;;;;;;8.75;4.47;;;30.60;24.30;;;;;;21087274;28;20171;-55
2023/07/08 20:19:54;;;;;;;9.52;5.53;;;30.40;24.50;;;;;;21087922;28;20095;-56
2023/07/08 20:29:54;;;;;;;8.82;3.80;;;30.30;24.60;;;;;;21088205;28;20103;-56
2023/07/08 20:39:55;;;;;;;8.75;4.40;;;30.00;25.10;;;;;;21085808;28;20068;-57
2023/07/08 20:49:56;;;;;;;5.57;4.00;;;29.90;24.90;;;;;;21085518;28;20389;-56
2023/07/08 20:59:57;;;;;;;7.28;4.20;;;29.60;25.20;;;;;;21084684;28;20071;-55
2023/07/08 21:09:57;;;;;;;8.70;4.47;;;29.40;25.40;;;;;;21083938;28;20083;-56
2023/07/08 21:19:58;;;;;;;7.70;3.70;;;29.10;25.60;;;;;;21082895;28;20164;-56
2023/07/08 21:29:59;;;;;;;5.65;3.65;;;29.00;25.30;;;;;;21082715;28;20051;-55
2023/07/08 21:39:59;;;;;;;7.35;4.32;;;28.80;25.30;;;;;;21081801;28;20075;-56
2023/07/08 21:50:00;;;;;;;7.53;3.70;;;28.60;25.60;;;;;;21080700;28;20044;-56
2023/07/08 22:00:01;;;;;;;6.60;3.83;;;28.40;25.90;;;;;;21081038;28;20126;-56
2023/07/08 22:10:02;;;;;;;6.88;4.95;;;28.30;25.50;;;;;;21079818;28;20040;-56
2023/07/08 22:20:05;;;;;;;13.88;4.88;;;28.10;25.70;;;;;;21079036;28;20056;-56
2023/07/08 22:30:06;;;;;;;15.45;9.93;;;28.00;25.60;;;;;;21079257;28;20079;-55
2023/07/08 22:40:08;;;;;;;11.20;8.95;;;27.90;26.10;;;;;;21078711;28;20051;-55
2023/07/08 22:50:09;;;;;;;8.82;4.95;;;27.80;26.20;;;;;;21078332;28;20379;-56
2023/07/08 23:00:24;;;;;;;7.32;5.05;;;27.70;26.10;;;;;;21076780;28;20059;-56
2023/07/08 23:10:25;;;;;;;6.93;3.80;;;27.60;26.00;;;;;;21077386;28;20090;-55
2023/07/08 23:20:26;;;;;;;10.50;4.03;;;27.60;26.20;;;;;;21078869;28;20105;-57
2023/07/08 23:30:27;;;;;;;6.70;4.20;;;27.60;26.60;;;;;;21092628;28;20048;-56
2023/07/08 23:40:27;;;;;;;11.00;8.73;;;27.60;26.60;;;;;;21092216;28;20466;-56
2023/07/08 23:50:28;;;;;;;11.87;6.73;;;27.50;27.50;;;;;;21091273;28;20127;-55
